sensor_id;sensor_type;location;lat;lon;timestamp;P1;durP1;ratioP1;P2;durP2;ratioP2
5616;SDS011;2830;50.656;7.568;2022-12-24T00:00:38;13.47;;;2.10;;
5616;SDS011;2830;50.656;7.568;2022-12-24T00:03:04;18.73;;;3.10;;
5616;SDS011;2830;50.656;7.568;2022-12-24T00:05:31;24.43;;;3.03;;
5616;SDS011;2830;50.656;7.568;2022-12-24T00:07:58;17.13;;;2.53;;
5616;SDS011;2830;50.656;7.568;2022-12-24T00:10:24;16.43;;;2.00;;
5616;SDS011;2830;50.656;7.568;2022-12-24T00:12:51;24.47;;;3.40;;
5616;SDS011;2830;50.656;7.568;2022-12-24T00:15:18;21.63;;;2.60;;
5616;SDS011;2830;50.656;7.568;2022-12-24T00:17:44;16.70;;;2.83;;
5616;SDS011;2830;50.656;7.568;2022-12-24T00:20:11;22.07;;;2.80;;
5616;SDS011;2830;50.656;7.568;2022-12-24T00:22:38;19.37;;;2.50;;
5616;SDS011;2830;50.656;7.568;2022-12-24T00:25:04;19.70;;;2.70;;
5616;SDS011;2830;50.656;7.568;2022-12-24T00:27:31;17.27;;;2.80;;
5616;SDS011;2830;50.656;7.568;2022-12-24T00:29:58;15.97;;;2.53;;
5616;SDS011;2830;50.656;7.568;2022-12-24T00:32:25;20.73;;;2.37;;
5616;SDS011;2830;50.656;7.568;2022-12-24T00:34:51;17.57;;;2.80;;
5616;SDS011;2830;50.656;7.568;2022-12-24T00:37:18;19.93;;;2.80;;
5616;SDS011;2830;50.656;7.568;2022-12-24T00:39:45;21.70;;;2.67;;
5616;SDS011;2830;50.656;7.568;2022-12-24T00:42:11;20.57;;;2.73;;
5616;SDS011;2830;50.656;7.568;2022-12-24T00:44:38;16.60;;;3.00;;
5616;SDS011;2830;50.656;7.568;2022-12-24T00:47:06;17.00;;;2.77;;
5616;SDS011;2830;50.656;7.568;2022-12-24T00:49:37;23.60;;;3.53;;
5616;SDS011;2830;50.656;7.568;2022-12-24T00:52:04;19.73;;;2.63;;
5616;SDS011;2830;50.656;7.568;2022-12-24T00:54:30;16.57;;;2.70;;
5616;SDS011;2830;50.656;7.568;2022-12-24T00:56:57;26.83;;;3.83;;
5616;SDS011;2830;50.656;7.568;2022-12-24T00:59:24;18.07;;;2.83;;
5616;SDS011;2830;50.656;7.568;2022-12-24T01:01:51;27.47;;;3.07;;
5616;SDS011;2830;50.656;7.568;2022-12-24T01:04:18;18.03;;;2.63;;
5616;SDS011;2830;50.656;7.568;2022-12-24T01:07:04;22.80;;;3.70;;
5616;SDS011;2830;50.656;7.568;2022-12-24T01:09:31;24.57;;;3.80;;
5616;SDS011;2830;50.656;7.568;2022-12-24T01:11:58;25.10;;;4.23;;
5616;SDS011;2830;50.656;7.568;2022-12-24T01:14:24;16.03;;;2.63;;
5616;SDS011;2830;50.656;7.568;2022-12-24T01:16:52;19.67;;;2.97;;
5616;SDS011;2830;50.656;7.568;2022-12-24T01:19:19;21.67;;;2.97;;
5616;SDS011;2830;50.656;7.568;2022-12-24T01:21:45;16.17;;;2.40;;
5616;SDS011;2830;50.656;7.568;2022-12-24T01:24:12;24.87;;;3.27;;
5616;SDS011;2830;50.656;7.568;2022-12-24T01:26:41;19.40;;;2.40;;
5616;SDS011;2830;50.656;7.568;2022-12-24T01:29:08;23.10;;;4.80;;
5616;SDS011;2830;50.656;7.568;2022-12-24T01:31:34;19.97;;;3.23;;
5616;SDS011;2830;50.656;7.568;2022-12-24T01:34:01;19.43;;;2.50;;
5616;SDS011;2830;50.656;7.568;2022-12-24T01:36:28;18.20;;;2.73;;
5616;SDS011;2830;50.656;7.568;2022-12-24T01:38:54;14.97;;;2.43;;
5616;SDS011;2830;50.656;7.568;2022-12-24T01:41:22;16.83;;;2.37;;
5616;SDS011;2830;50.656;7.568;2022-12-24T01:47:08;18.07;;;4.20;;
5616;SDS011;2830;50.656;7.568;2022-12-24T01:49:37;19.70;;;3.67;;
5616;SDS011;2830;50.656;7.568;2022-12-24T01:52:18;19.73;;;2.10;;
5616;SDS011;2830;50.656;7.568;2022-12-24T01:54:51;22.20;;;3.50;;
5616;SDS011;2830;50.656;7.568;2022-12-24T01:57:25;24.07;;;3.60;;
5616;SDS011;2830;50.656;7.568;2022-12-24T02:00:01;19.77;;;2.40;;
5616;SDS011;2830;50.656;7.568;2022-12-24T02:02:32;22.47;;;3.00;;
5616;SDS011;2830;50.656;7.568;2022-12-24T02:05:02;18.87;;;3.10;;
5616;SDS011;2830;50.656;7.568;2022-12-24T02:07:33;23.87;;;3.63;;
5616;SDS011;2830;50.656;7.568;2022-12-24T02:10:00;19.30;;;2.90;;
5616;SDS011;2830;50.656;7.568;2022-12-24T02:12:30;27.43;;;3.73;;
5616;SDS011;2830;50.656;7.568;2022-12-24T02:14:59;15.30;;;2.60;;
5616;SDS011;2830;50.656;7.568;2022-12-24T02:23:12;24.70;;;3.40;;
5616;SDS011;2830;50.656;7.568;2022-12-24T02:28:54;26.73;;;3.57;;
5616;SDS011;2830;50.656;7.568;2022-12-24T02:31:51;18.47;;;2.47;;
5616;SDS011;2830;50.656;7.568;2022-12-24T02:34:30;17.10;;;2.50;;
5616;SDS011;2830;50.656;7.568;2022-12-24T02:42:17;22.23;;;3.60;;
5616;SDS011;2830;50.656;7.568;2022-12-24T02:44:47;20.00;;;3.03;;
5616;SDS011;2830;50.656;7.568;2022-12-24T02:47:18;16.20;;;2.60;;
5616;SDS011;2830;50.656;7.568;2022-12-24T02:49:48;20.27;;;2.43;;
5616;SDS011;2830;50.656;7.568;2022-12-24T02:55:00;18.70;;;2.70;;
5616;SDS011;2830;50.656;7.568;2022-12-24T02:57:33;23.20;;;2.67;;
5616;SDS011;2830;50.656;7.568;2022-12-24T03:00:21;24.93;;;2.90;;
5616;SDS011;2830;50.656;7.568;2022-12-24T03:10:54;18.83;;;3.73;;
5616;SDS011;2830;50.656;7.568;2022-12-24T03:13:23;16.17;;;2.00;;
5616;SDS011;2830;50.656;7.568;2022-12-24T03:15:51;18.33;;;2.70;;
5616;SDS011;2830;50.656;7.568;2022-12-24T03:18:19;16.30;;;2.70;;
5616;SDS011;2830;50.656;7.568;2022-12-24T03:21:35;13.40;;;1.87;;
5616;SDS011;2830;50.656;7.568;2022-12-24T03:23:38;18.07;;;2.40;;
5616;SDS011;2830;50.656;7.568;2022-12-24T03:26:06;16.70;;;2.67;;
5616;SDS011;2830;50.656;7.568;2022-12-24T03:28:36;20.33;;;3.23;;
5616;SDS011;2830;50.656;7.568;2022-12-24T03:31:04;16.60;;;2.00;;
5616;SDS011;2830;50.656;7.568;2022-12-24T03:33:33;19.07;;;3.00;;
5616;SDS011;2830;50.656;7.568;2022-12-24T03:36:01;16.63;;;2.50;;
5616;SDS011;2830;50.656;7.568;2022-12-24T03:38:29;19.73;;;3.10;;
5616;SDS011;2830;50.656;7.568;2022-12-24T03:40:56;16.00;;;2.87;;
5616;SDS011;2830;50.656;7.568;2022-12-24T03:43:23;19.20;;;2.33;;
5616;SDS011;2830;50.656;7.568;2022-12-24T03:45:50;20.13;;;2.80;;
5616;SDS011;2830;50.656;7.568;2022-12-24T03:48:17;19.73;;;2.67;;
5616;SDS011;2830;50.656;7.568;2022-12-24T03:50:43;13.60;;;1.83;;
5616;SDS011;2830;50.656;7.568;2022-12-24T03:53:10;16.00;;;2.30;;
5616;SDS011;2830;50.656;7.568;2022-12-24T03:55:37;17.07;;;2.60;;
5616;SDS011;2830;50.656;7.568;2022-12-24T03:58:04;22.70;;;2.83;;
5616;SDS011;2830;50.656;7.568;2022-12-24T04:00:31;19.33;;;3.27;;
5616;SDS011;2830;50.656;7.568;2022-12-24T04:02:58;18.93;;;2.37;;
5616;SDS011;2830;50.656;7.568;2022-12-24T04:05:25;16.20;;;2.93;;
5616;SDS011;2830;50.656;7.568;2022-12-24T04:07:52;19.30;;;3.30;;
5616;SDS011;2830;50.656;7.568;2022-12-24T04:10:19;21.80;;;3.07;;
5616;SDS011;2830;50.656;7.568;2022-12-24T04:12:47;21.70;;;3.50;;
5616;SDS011;2830;50.656;7.568;2022-12-24T04:15:14;15.87;;;2.30;;
5616;SDS011;2830;50.656;7.568;2022-12-24T04:17:41;21.10;;;2.97;;
5616;SDS011;2830;50.656;7.568;2022-12-24T04:20:07;15.57;;;2.20;;
5616;SDS011;2830;50.656;7.568;2022-12-24T04:22:34;23.23;;;3.33;;
5616;SDS011;2830;50.656;7.568;2022-12-24T04:25:02;16.00;;;3.73;;
5616;SDS011;2830;50.656;7.568;2022-12-24T04:27:29;22.53;;;3.00;;
5616;SDS011;2830;50.656;7.568;2022-12-24T04:29:56;18.70;;;2.97;;
5616;SDS011;2830;50.656;7.568;2022-12-24T04:32:24;18.87;;;2.47;;
5616;SDS011;2830;50.656;7.568;2022-12-24T04:34:51;21.40;;;3.23;;
5616;SDS011;2830;50.656;7.568;2022-12-24T04:37:18;17.90;;;2.67;;
5616;SDS011;2830;50.656;7.568;2022-12-24T04:39:44;20.23;;;2.73;;
5616;SDS011;2830;50.656;7.568;2022-12-24T04:42:11;14.70;;;2.57;;
5616;SDS011;2830;50.656;7.568;2022-12-24T04:44:38;19.37;;;2.50;;
5616;SDS011;2830;50.656;7.568;2022-12-24T04:47:04;17.70;;;2.60;;
5616;SDS011;2830;50.656;7.568;2022-12-24T04:49:31;18.47;;;2.83;;
5616;SDS011;2830;50.656;7.568;2022-12-24T04:51:58;18.47;;;2.23;;
5616;SDS011;2830;50.656;7.568;2022-12-24T04:54:24;19.67;;;2.20;;
5616;SDS011;2830;50.656;7.568;2022-12-24T04:56:51;19.03;;;3.00;;
5616;SDS011;2830;50.656;7.568;2022-12-24T04:59:17;23.77;;;3.63;;
5616;SDS011;2830;50.656;7.568;2022-12-24T05:01:44;21.53;;;3.20;;
5616;SDS011;2830;50.656;7.568;2022-12-24T05:04:11;19.50;;;2.90;;
5616;SDS011;2830;50.656;7.568;2022-12-24T05:06:38;13.50;;;2.20;;
5616;SDS011;2830;50.656;7.568;2022-12-24T05:09:04;14.80;;;2.00;;
5616;SDS011;2830;50.656;7.568;2022-12-24T05:11:31;13.43;;;1.60;;
5616;SDS011;2830;50.656;7.568;2022-12-24T05:13:58;12.70;;;2.77;;
5616;SDS011;2830;50.656;7.568;2022-12-24T05:16:24;12.33;;;2.23;;
5616;SDS011;2830;50.656;7.568;2022-12-24T05:18:53;12.43;;;2.20;;
5616;SDS011;2830;50.656;7.568;2022-12-24T05:21:20;12.40;;;1.40;;
5616;SDS011;2830;50.656;7.568;2022-12-24T05:23:49;12.73;;;1.60;;
5616;SDS011;2830;50.656;7.568;2022-12-24T05:26:41;11.23;;;1.40;;
5616;SDS011;2830;50.656;7.568;2022-12-24T05:29:11;13.70;;;1.80;;
5616;SDS011;2830;50.656;7.568;2022-12-24T05:31:37;14.47;;;1.73;;
5616;SDS011;2830;50.656;7.568;2022-12-24T05:34:06;14.50;;;1.80;;
5616;SDS011;2830;50.656;7.568;2022-12-24T05:36:33;17.23;;;1.70;;
5616;SDS011;2830;50.656;7.568;2022-12-24T05:39:00;12.23;;;1.23;;
5616;SDS011;2830;50.656;7.568;2022-12-24T05:41:27;15.13;;;2.13;;
5616;SDS011;2830;50.656;7.568;2022-12-24T05:43:53;13.53;;;1.73;;
5616;SDS011;2830;50.656;7.568;2022-12-24T05:46:21;11.03;;;1.20;;
5616;SDS011;2830;50.656;7.568;2022-12-24T05:48:50;12.10;;;1.20;;
5616;SDS011;2830;50.656;7.568;2022-12-24T05:51:21;9.60;;;1.20;;
5616;SDS011;2830;50.656;7.568;2022-12-24T05:53:50;13.13;;;1.20;;
5616;SDS011;2830;50.656;7.568;2022-12-24T05:56:18;10.70;;;1.30;;
5616;SDS011;2830;50.656;7.568;2022-12-24T05:58:48;12.77;;;1.30;;
5616;SDS011;2830;50.656;7.568;2022-12-24T06:01:15;14.47;;;1.57;;
5616;SDS011;2830;50.656;7.568;2022-12-24T06:03:42;10.33;;;1.43;;
5616;SDS011;2830;50.656;7.568;2022-12-24T06:06:11;12.80;;;1.43;;
5616;SDS011;2830;50.656;7.568;2022-12-24T06:08:39;27.63;;;15.40;;
5616;SDS011;2830;50.656;7.568;2022-12-24T06:11:08;18.70;;;8.53;;
5616;SDS011;2830;50.656;7.568;2022-12-24T06:13:37;22.93;;;7.20;;
5616;SDS011;2830;50.656;7.568;2022-12-24T06:16:06;20.93;;;8.40;;
5616;SDS011;2830;50.656;7.568;2022-12-24T06:18:34;16.20;;;4.70;;
5616;SDS011;2830;50.656;7.568;2022-12-24T06:21:01;22.93;;;2.83;;
5616;SDS011;2830;50.656;7.568;2022-12-24T06:23:30;16.37;;;2.50;;
5616;SDS011;2830;50.656;7.568;2022-12-24T06:25:58;13.50;;;2.20;;
5616;SDS011;2830;50.656;7.568;2022-12-24T06:28:30;16.07;;;2.00;;
5616;SDS011;2830;50.656;7.568;2022-12-24T06:30:58;16.83;;;3.30;;
5616;SDS011;2830;50.656;7.568;2022-12-24T06:33:29;26.83;;;6.33;;
5616;SDS011;2830;50.656;7.568;2022-12-24T06:35:57;18.70;;;3.63;;
5616;SDS011;2830;50.656;7.568;2022-12-24T06:38:24;16.23;;;3.03;;
5616;SDS011;2830;50.656;7.568;2022-12-24T06:40:51;19.43;;;2.67;;
5616;SDS011;2830;50.656;7.568;2022-12-24T06:43:18;21.63;;;2.90;;
5616;SDS011;2830;50.656;7.568;2022-12-24T06:45:46;14.50;;;3.80;;
5616;SDS011;2830;50.656;7.568;2022-12-24T06:48:13;15.00;;;3.10;;
5616;SDS011;2830;50.656;7.568;2022-12-24T06:50:40;18.40;;;3.10;;
5616;SDS011;2830;50.656;7.568;2022-12-24T06:53:08;13.47;;;2.70;;
5616;SDS011;2830;50.656;7.568;2022-12-24T06:55:35;15.83;;;3.00;;
5616;SDS011;2830;50.656;7.568;2022-12-24T06:58:03;17.63;;;2.70;;
5616;SDS011;2830;50.656;7.568;2022-12-24T07:00:31;13.07;;;2.13;;
5616;SDS011;2830;50.656;7.568;2022-12-24T07:02:59;11.90;;;1.90;;
5616;SDS011;2830;50.656;7.568;2022-12-24T07:05:26;17.53;;;2.27;;
5616;SDS011;2830;50.656;7.568;2022-12-24T07:07:54;15.70;;;2.47;;
5616;SDS011;2830;50.656;7.568;2022-12-24T07:10:21;21.17;;;3.20;;
5616;SDS011;2830;50.656;7.568;2022-12-24T07:12:49;17.93;;;3.20;;
5616;SDS011;2830;50.656;7.568;2022-12-24T07:15:17;17.20;;;1.83;;
5616;SDS011;2830;50.656;7.568;2022-12-24T07:17:44;11.77;;;2.40;;
5616;SDS011;2830;50.656;7.568;2022-12-24T07:20:12;11.60;;;2.30;;
5616;SDS011;2830;50.656;7.568;2022-12-24T07:22:40;12.00;;;2.07;;
5616;SDS011;2830;50.656;7.568;2022-12-24T07:25:08;15.33;;;3.53;;
5616;SDS011;2830;50.656;7.568;2022-12-24T07:27:35;12.50;;;2.67;;
5616;SDS011;2830;50.656;7.568;2022-12-24T07:30:03;14.53;;;2.90;;
5616;SDS011;2830;50.656;7.568;2022-12-24T07:32:30;13.20;;;2.20;;
5616;SDS011;2830;50.656;7.568;2022-12-24T07:34:57;11.37;;;2.10;;
5616;SDS011;2830;50.656;7.568;2022-12-24T07:37:24;14.10;;;2.90;;
5616;SDS011;2830;50.656;7.568;2022-12-24T07:39:52;13.57;;;3.03;;
5616;SDS011;2830;50.656;7.568;2022-12-24T07:42:19;19.37;;;3.87;;
5616;SDS011;2830;50.656;7.568;2022-12-24T07:44:46;23.40;;;5.47;;
5616;SDS011;2830;50.656;7.568;2022-12-24T07:47:13;19.00;;;4.70;;
5616;SDS011;2830;50.656;7.568;2022-12-24T07:49:40;21.70;;;4.03;;
5616;SDS011;2830;50.656;7.568;2022-12-24T07:52:07;23.17;;;3.73;;
5616;SDS011;2830;50.656;7.568;2022-12-24T07:54:34;15.83;;;3.30;;
5616;SDS011;2830;50.656;7.568;2022-12-24T07:57:01;23.07;;;5.30;;
5616;SDS011;2830;50.656;7.568;2022-12-24T07:59:29;21.63;;;4.40;;
5616;SDS011;2830;50.656;7.568;2022-12-24T08:01:56;25.53;;;3.87;;
5616;SDS011;2830;50.656;7.568;2022-12-24T08:04:24;23.33;;;3.77;;
5616;SDS011;2830;50.656;7.568;2022-12-24T08:06:51;25.20;;;6.00;;
5616;SDS011;2830;50.656;7.568;2022-12-24T08:09:18;22.37;;;4.50;;
5616;SDS011;2830;50.656;7.568;2022-12-24T08:11:45;16.70;;;4.93;;
5616;SDS011;2830;50.656;7.568;2022-12-24T08:14:18;18.87;;;4.30;;
5616;SDS011;2830;50.656;7.568;2022-12-24T08:16:45;21.90;;;5.00;;
5616;SDS011;2830;50.656;7.568;2022-12-24T08:19:13;20.37;;;4.97;;
5616;SDS011;2830;50.656;7.568;2022-12-24T08:21:40;25.43;;;4.70;;
5616;SDS011;2830;50.656;7.568;2022-12-24T08:24:07;22.07;;;4.57;;
5616;SDS011;2830;50.656;7.568;2022-12-24T08:26:34;22.40;;;4.30;;
5616;SDS011;2830;50.656;7.568;2022-12-24T08:29:02;18.27;;;3.47;;
5616;SDS011;2830;50.656;7.568;2022-12-24T08:31:29;21.67;;;5.03;;
5616;SDS011;2830;50.656;7.568;2022-12-24T08:34:04;17.33;;;3.87;;
5616;SDS011;2830;50.656;7.568;2022-12-24T08:36:31;19.50;;;4.77;;
5616;SDS011;2830;50.656;7.568;2022-12-24T08:38:59;21.33;;;3.90;;
5616;SDS011;2830;50.656;7.568;2022-12-24T08:41:29;25.53;;;5.50;;
5616;SDS011;2830;50.656;7.568;2022-12-24T08:43:56;21.60;;;4.67;;
5616;SDS011;2830;50.656;7.568;2022-12-24T08:46:23;18.30;;;4.17;;
5616;SDS011;2830;50.656;7.568;2022-12-24T08:48:50;16.20;;;3.67;;
5616;SDS011;2830;50.656;7.568;2022-12-24T08:51:17;22.83;;;5.00;;
5616;SDS011;2830;50.656;7.568;2022-12-24T08:53:45;31.93;;;7.90;;
5616;SDS011;2830;50.656;7.568;2022-12-24T08:56:12;21.30;;;3.90;;
5616;SDS011;2830;50.656;7.568;2022-12-24T08:58:39;28.17;;;4.20;;
5616;SDS011;2830;50.656;7.568;2022-12-24T09:01:14;18.30;;;3.03;;
5616;SDS011;2830;50.656;7.568;2022-12-24T09:03:42;18.80;;;3.80;;
5616;SDS011;2830;50.656;7.568;2022-12-24T09:06:09;22.97;;;4.93;;
5616;SDS011;2830;50.656;7.568;2022-12-24T09:08:36;26.53;;;5.83;;
5616;SDS011;2830;50.656;7.568;2022-12-24T09:11:04;19.40;;;4.20;;
5616;SDS011;2830;50.656;7.568;2022-12-24T09:13:32;26.37;;;4.50;;
5616;SDS011;2830;50.656;7.568;2022-12-24T09:15:59;27.73;;;6.10;;
5616;SDS011;2830;50.656;7.568;2022-12-24T09:18:27;23.10;;;4.07;;
5616;SDS011;2830;50.656;7.568;2022-12-24T09:20:57;24.93;;;4.00;;
5616;SDS011;2830;50.656;7.568;2022-12-24T09:23:26;24.47;;;3.67;;
5616;SDS011;2830;50.656;7.568;2022-12-24T09:25:53;24.47;;;3.80;;
5616;SDS011;2830;50.656;7.568;2022-12-24T09:28:21;20.23;;;4.00;;
5616;SDS011;2830;50.656;7.568;2022-12-24T09:30:58;21.57;;;4.73;;
5616;SDS011;2830;50.656;7.568;2022-12-24T09:33:26;19.80;;;3.50;;
5616;SDS011;2830;50.656;7.568;2022-12-24T09:35:53;22.37;;;4.33;;
5616;SDS011;2830;50.656;7.568;2022-12-24T09:38:20;15.80;;;2.90;;
5616;SDS011;2830;50.656;7.568;2022-12-24T09:40:48;22.30;;;4.23;;
5616;SDS011;2830;50.656;7.568;2022-12-24T09:43:16;16.60;;;3.80;;
5616;SDS011;2830;50.656;7.568;2022-12-24T09:48:33;20.40;;;5.77;;
5616;SDS011;2830;50.656;7.568;2022-12-24T09:51:02;20.07;;;3.67;;
5616;SDS011;2830;50.656;7.568;2022-12-24T09:53:39;24.27;;;3.53;;
5616;SDS011;2830;50.656;7.568;2022-12-24T09:56:12;21.80;;;3.90;;
5616;SDS011;2830;50.656;7.568;2022-12-24T09:58:42;25.77;;;3.67;;
5616;SDS011;2830;50.656;7.568;2022-12-24T10:01:12;20.50;;;3.83;;
5616;SDS011;2830;50.656;7.568;2022-12-24T10:03:40;23.13;;;3.43;;
5616;SDS011;2830;50.656;7.568;2022-12-24T10:06:09;28.70;;;3.60;;
5616;SDS011;2830;50.656;7.568;2022-12-24T10:24:29;20.33;;;3.50;;
5616;SDS011;2830;50.656;7.568;2022-12-24T10:27:00;17.60;;;3.50;;
5616;SDS011;2830;50.656;7.568;2022-12-24T10:29:33;18.60;;;3.27;;
5616;SDS011;2830;50.656;7.568;2022-12-24T10:34:35;21.03;;;3.40;;
5616;SDS011;2830;50.656;7.568;2022-12-24T10:37:04;27.73;;;7.60;;
5616;SDS011;2830;50.656;7.568;2022-12-24T10:39:32;22.40;;;3.67;;
5616;SDS011;2830;50.656;7.568;2022-12-24T10:42:00;24.00;;;4.30;;
5616;SDS011;2830;50.656;7.568;2022-12-24T10:44:28;28.33;;;6.37;;
5616;SDS011;2830;50.656;7.568;2022-12-24T10:46:56;23.83;;;3.97;;
5616;SDS011;2830;50.656;7.568;2022-12-24T10:49:28;21.07;;;3.23;;
5616;SDS011;2830;50.656;7.568;2022-12-24T10:52:02;23.10;;;3.50;;
5616;SDS011;2830;50.656;7.568;2022-12-24T10:54:29;19.23;;;2.90;;
5616;SDS011;2830;50.656;7.568;2022-12-24T10:57:05;25.53;;;3.20;;
5616;SDS011;2830;50.656;7.568;2022-12-24T11:02:24;21.93;;;4.03;;
5616;SDS011;2830;50.656;7.568;2022-12-24T11:04:52;19.80;;;4.07;;
5616;SDS011;2830;50.656;7.568;2022-12-24T11:07:20;27.90;;;3.73;;
5616;SDS011;2830;50.656;7.568;2022-12-24T11:09:55;27.13;;;4.40;;
5616;SDS011;2830;50.656;7.568;2022-12-24T11:12:24;22.03;;;3.70;;
5616;SDS011;2830;50.656;7.568;2022-12-24T11:14:58;21.67;;;4.40;;
5616;SDS011;2830;50.656;7.568;2022-12-24T11:17:26;32.53;;;4.00;;
5616;SDS011;2830;50.656;7.568;2022-12-24T11:19:53;23.43;;;4.27;;
5616;SDS011;2830;50.656;7.568;2022-12-24T11:22:24;25.90;;;4.30;;
5616;SDS011;2830;50.656;7.568;2022-12-24T11:24:59;21.87;;;4.73;;
5616;SDS011;2830;50.656;7.568;2022-12-24T11:27:33;21.13;;;5.90;;
5616;SDS011;2830;50.656;7.568;2022-12-24T11:30:16;27.97;;;3.90;;
5616;SDS011;2830;50.656;7.568;2022-12-24T11:32:48;25.97;;;6.47;;
5616;SDS011;2830;50.656;7.568;2022-12-24T11:35:20;18.47;;;3.50;;
5616;SDS011;2830;50.656;7.568;2022-12-24T11:37:48;25.10;;;4.37;;
5616;SDS011;2830;50.656;7.568;2022-12-24T11:40:19;22.10;;;4.10;;
5616;SDS011;2830;50.656;7.568;2022-12-24T11:42:46;28.37;;;3.50;;
5616;SDS011;2830;50.656;7.568;2022-12-24T11:45:22;20.20;;;3.20;;
5616;SDS011;2830;50.656;7.568;2022-12-24T11:47:51;23.23;;;3.70;;
5616;SDS011;2830;50.656;7.568;2022-12-24T11:58:34;38.90;;;6.80;;
5616;SDS011;2830;50.656;7.568;2022-12-24T12:01:17;32.30;;;4.37;;
5616;SDS011;2830;50.656;7.568;2022-12-24T12:03:50;23.90;;;4.27;;
5616;SDS011;2830;50.656;7.568;2022-12-24T12:06:36;20.43;;;3.87;;
5616;SDS011;2830;50.656;7.568;2022-12-24T12:09:16;23.50;;;4.90;;
5616;SDS011;2830;50.656;7.568;2022-12-24T12:11:46;26.97;;;4.17;;
5616;SDS011;2830;50.656;7.568;2022-12-24T12:14:17;33.33;;;6.27;;
5616;SDS011;2830;50.656;7.568;2022-12-24T12:17:03;21.90;;;4.07;;
5616;SDS011;2830;50.656;7.568;2022-12-24T12:20:15;31.40;;;3.60;;
5616;SDS011;2830;50.656;7.568;2022-12-24T12:22:25;18.77;;;3.47;;
5616;SDS011;2830;50.656;7.568;2022-12-24T12:24:54;21.73;;;4.13;;
5616;SDS011;2830;50.656;7.568;2022-12-24T12:27:26;19.23;;;3.63;;
5616;SDS011;2830;50.656;7.568;2022-12-24T12:29:56;22.67;;;4.17;;
5616;SDS011;2830;50.656;7.568;2022-12-24T12:32:36;19.10;;;3.43;;
5616;SDS011;2830;50.656;7.568;2022-12-24T12:35:48;22.87;;;3.80;;
5616;SDS011;2830;50.656;7.568;2022-12-24T12:37:57;22.70;;;4.17;;
5616;SDS011;2830;50.656;7.568;2022-12-24T12:40:28;17.73;;;3.50;;
5616;SDS011;2830;50.656;7.568;2022-12-24T12:43:01;17.87;;;3.93;;
5616;SDS011;2830;50.656;7.568;2022-12-24T12:45:45;26.77;;;3.40;;
5616;SDS011;2830;50.656;7.568;2022-12-24T12:50:52;27.00;;;5.17;;
5616;SDS011;2830;50.656;7.568;2022-12-24T12:53:40;29.30;;;6.33;;
5616;SDS011;2830;50.656;7.568;2022-12-24T12:56:30;24.40;;;4.40;;
5616;SDS011;2830;50.656;7.568;2022-12-24T12:59:07;24.67;;;3.57;;
5616;SDS011;2830;50.656;7.568;2022-12-24T13:01:53;21.90;;;3.50;;
5616;SDS011;2830;50.656;7.568;2022-12-24T13:13:01;19.60;;;3.40;;
5616;SDS011;2830;50.656;7.568;2022-12-24T13:15:19;25.73;;;4.43;;
5616;SDS011;2830;50.656;7.568;2022-12-24T13:20:31;22.60;;;3.20;;
5616;SDS011;2830;50.656;7.568;2022-12-24T13:23:03;21.17;;;3.67;;
5616;SDS011;2830;50.656;7.568;2022-12-24T13:25:38;26.43;;;4.13;;
5616;SDS011;2830;50.656;7.568;2022-12-24T13:30:42;19.67;;;4.27;;
5616;SDS011;2830;50.656;7.568;2022-12-24T13:33:11;24.80;;;6.27;;
5616;SDS011;2830;50.656;7.568;2022-12-24T13:40:54;30.37;;;10.00;;
5616;SDS011;2830;50.656;7.568;2022-12-24T13:43:22;23.17;;;4.40;;
5616;SDS011;2830;50.656;7.568;2022-12-24T13:45:49;24.20;;;6.30;;
5616;SDS011;2830;50.656;7.568;2022-12-24T13:48:34;24.10;;;3.90;;
5616;SDS011;2830;50.656;7.568;2022-12-24T13:51:18;21.50;;;3.70;;
5616;SDS011;2830;50.656;7.568;2022-12-24T13:53:46;25.40;;;4.50;;
5616;SDS011;2830;50.656;7.568;2022-12-24T13:58:43;20.30;;;4.00;;
5616;SDS011;2830;50.656;7.568;2022-12-24T14:01:12;21.83;;;3.40;;
5616;SDS011;2830;50.656;7.568;2022-12-24T14:03:41;24.90;;;4.80;;
5616;SDS011;2830;50.656;7.568;2022-12-24T14:06:11;25.13;;;4.80;;
5616;SDS011;2830;50.656;7.568;2022-12-24T14:08:40;20.90;;;4.83;;
5616;SDS011;2830;50.656;7.568;2022-12-24T14:11:09;15.70;;;3.10;;
5616;SDS011;2830;50.656;7.568;2022-12-24T14:16:07;17.90;;;3.10;;
5616;SDS011;2830;50.656;7.568;2022-12-24T14:18:38;22.63;;;3.83;;
5616;SDS011;2830;50.656;7.568;2022-12-24T14:21:06;23.13;;;4.70;;
5616;SDS011;2830;50.656;7.568;2022-12-24T14:23:42;31.40;;;4.10;;
5616;SDS011;2830;50.656;7.568;2022-12-24T14:26:12;14.73;;;3.17;;
5616;SDS011;2830;50.656;7.568;2022-12-24T14:28:42;24.73;;;3.40;;
5616;SDS011;2830;50.656;7.568;2022-12-24T14:31:15;23.20;;;5.43;;
5616;SDS011;2830;50.656;7.568;2022-12-24T14:33:43;25.93;;;5.10;;
5616;SDS011;2830;50.656;7.568;2022-12-24T14:36:11;20.10;;;3.13;;
5616;SDS011;2830;50.656;7.568;2022-12-24T14:38:39;20.87;;;4.07;;
5616;SDS011;2830;50.656;7.568;2022-12-24T14:43:59;23.27;;;4.60;;
5616;SDS011;2830;50.656;7.568;2022-12-24T14:46:31;24.13;;;5.00;;
5616;SDS011;2830;50.656;7.568;2022-12-24T14:51:40;16.03;;;3.50;;
5616;SDS011;2830;50.656;7.568;2022-12-24T14:56:46;25.20;;;4.57;;
5616;SDS011;2830;50.656;7.568;2022-12-24T14:59:17;21.00;;;3.73;;
5616;SDS011;2830;50.656;7.568;2022-12-24T15:01:44;32.57;;;13.57;;
5616;SDS011;2830;50.656;7.568;2022-12-24T15:06:48;20.00;;;3.63;;
5616;SDS011;2830;50.656;7.568;2022-12-24T15:11:48;22.70;;;4.30;;
5616;SDS011;2830;50.656;7.568;2022-12-24T15:14:16;22.23;;;3.47;;
5616;SDS011;2830;50.656;7.568;2022-12-24T15:16:54;17.40;;;3.30;;
5616;SDS011;2830;50.656;7.568;2022-12-24T15:19:23;20.13;;;3.50;;
5616;SDS011;2830;50.656;7.568;2022-12-24T15:21:52;21.00;;;3.43;;
5616;SDS011;2830;50.656;7.568;2022-12-24T15:24:30;18.80;;;3.63;;
5616;SDS011;2830;50.656;7.568;2022-12-24T15:26:58;24.73;;;3.73;;
5616;SDS011;2830;50.656;7.568;2022-12-24T15:29:28;24.67;;;6.50;;
5616;SDS011;2830;50.656;7.568;2022-12-24T15:31:59;45.30;;;16.77;;
5616;SDS011;2830;50.656;7.568;2022-12-24T15:34:34;35.63;;;12.93;;
5616;SDS011;2830;50.656;7.568;2022-12-24T15:39:38;28.23;;;9.60;;
5616;SDS011;2830;50.656;7.568;2022-12-24T15:42:06;25.90;;;9.67;;
5616;SDS011;2830;50.656;7.568;2022-12-24T15:44:48;26.73;;;9.27;;
5616;SDS011;2830;50.656;7.568;2022-12-24T15:47:22;19.77;;;7.13;;
5616;SDS011;2830;50.656;7.568;2022-12-24T15:49:51;27.67;;;7.23;;
5616;SDS011;2830;50.656;7.568;2022-12-24T15:52:19;33.83;;;16.17;;
5616;SDS011;2830;50.656;7.568;2022-12-24T15:54:49;23.73;;;9.60;;
5616;SDS011;2830;50.656;7.568;2022-12-24T15:57:24;28.17;;;7.97;;
5616;SDS011;2830;50.656;7.568;2022-12-24T15:59:52;25.67;;;8.50;;
5616;SDS011;2830;50.656;7.568;2022-12-24T16:02:37;23.60;;;8.27;;
5616;SDS011;2830;50.656;7.568;2022-12-24T16:08:17;22.80;;;6.30;;
5616;SDS011;2830;50.656;7.568;2022-12-24T16:11:05;18.47;;;6.30;;
5616;SDS011;2830;50.656;7.568;2022-12-24T16:13:40;27.40;;;6.00;;
5616;SDS011;2830;50.656;7.568;2022-12-24T16:16:11;22.97;;;5.47;;
5616;SDS011;2830;50.656;7.568;2022-12-24T16:21:14;19.80;;;5.43;;
5616;SDS011;2830;50.656;7.568;2022-12-24T16:23:45;18.80;;;4.90;;
5616;SDS011;2830;50.656;7.568;2022-12-24T16:26:13;24.60;;;4.97;;
5616;SDS011;2830;50.656;7.568;2022-12-24T16:28:41;19.20;;;2.93;;
5616;SDS011;2830;50.656;7.568;2022-12-24T16:31:16;17.83;;;3.37;;
5616;SDS011;2830;50.656;7.568;2022-12-24T16:33:45;15.70;;;2.87;;
5616;SDS011;2830;50.656;7.568;2022-12-24T16:36:13;15.53;;;2.67;;
5616;SDS011;2830;50.656;7.568;2022-12-24T16:38:40;16.90;;;3.20;;
5616;SDS011;2830;50.656;7.568;2022-12-24T16:41:29;26.47;;;3.20;;
5616;SDS011;2830;50.656;7.568;2022-12-24T16:44:18;14.70;;;2.87;;
5616;SDS011;2830;50.656;7.568;2022-12-24T16:46:45;20.77;;;4.30;;
5616;SDS011;2830;50.656;7.568;2022-12-24T16:49:15;29.63;;;7.13;;
5616;SDS011;2830;50.656;7.568;2022-12-24T16:51:43;22.03;;;5.70;;
5616;SDS011;2830;50.656;7.568;2022-12-24T16:54:13;23.73;;;4.87;;
5616;SDS011;2830;50.656;7.568;2022-12-24T16:56:43;21.97;;;3.90;;
5616;SDS011;2830;50.656;7.568;2022-12-24T16:59:18;16.40;;;3.73;;
5616;SDS011;2830;50.656;7.568;2022-12-24T17:01:46;15.60;;;4.10;;
5616;SDS011;2830;50.656;7.568;2022-12-24T17:04:13;16.73;;;4.50;;